ADDS METAR Data INFO
IDs: Format: Raw Decoded Include TAF

Data at: 2055 UTC 24 Jun 2017

KDUB 242035Z AUTO 12011G19KT 075V135 10SM SCT100 19/M01 A3037 RMK AO2
KDUB 242015Z AUTO 13010G15KT 10SM CLR 20/M01 A3037 RMK AO2
KDUB 241955Z AUTO 13011G16KT 10SM CLR 18/M01 A3037 RMK AO2
KDUB 241935Z AUTO 13008G18KT 10SM SCT090 18/M01 A3037 RMK AO2
KDUB 241915Z AUTO 12010G15KT 10SM CLR 18/M01 A3038 RMK AO2
KDUB 241855Z AUTO 12009G15KT 10SM SCT085 18/M01 A3038 RMK AO2
KDUB 241835Z AUTO 12011G16KT 10SM SCT085 17/M01 A3039 RMK AO2
KDUB 241815Z AUTO 12007KT 10SM CLR 17/M01 A3039 RMK AO2
KDUB 241755Z AUTO 11008G15KT 085V145 10SM CLR 16/M01 A3039 RMK AO2
KDUB 241735Z AUTO 11005KT 10SM CLR 16/M02 A3039 RMK AO2
KDUB 241715Z AUTO 14005KT 10SM CLR 15/M02 A3040 RMK AO2
KDUB 241655Z AUTO 13005KT 10SM CLR 15/M01 A3040 RMK AO2
KDUB 241635Z AUTO 09005KT 10SM CLR 14/M01 A3040 RMK AO2
KDUB 241615Z AUTO 09006KT 10SM CLR 13/M01 A3040 RMK AO2
KDUB 241555Z AUTO 09003KT 10SM CLR 12/M01 A3041 RMK AO2
KDUB 241535Z AUTO 09003KT 10SM CLR 11/M01 A3041 RMK AO2
KDUB 241515Z AUTO 09003KT 10SM CLR 11/M01 A3041 RMK AO2
KDUB 241455Z AUTO 07003KT 10SM CLR 10/M01 A3041 RMK AO2
KDUB 241435Z AUTO 31003KT 10SM CLR 09/M01 A3042 RMK AO2
KDUB 241415Z AUTO 29005KT 10SM CLR 08/M01 A3041 RMK AO2
KDUB 241355Z AUTO 31006KT 10SM CLR 06/M01 A3042 RMK AO2
KDUB 241335Z AUTO 32009KT 10SM CLR 05/M02 A3042 RMK AO2
KDUB 241310Z AUTO 32008KT 10SM CLR 04/M02 A3042 RMK AO2
KDUB 241255Z AUTO 32007KT 10SM CLR 03/M02 A3042 RMK AO2
KDUB 241235Z AUTO 30007KT 10SM CLR 03/M02 A3042 RMK AO2
KDUB 241215Z AUTO 30007KT 10SM CLR 02/M02 A3041 RMK AO2
KDUB 241155Z AUTO 31008KT 10SM CLR 02/M02 A3042 RMK AO2
KDUB 241135Z AUTO 31006KT 10SM CLR 02/M02 A3041 RMK AO2
KDUB 241115Z AUTO 30007KT 10SM CLR 02/M02 A3041 RMK AO2
KDUB 241055Z AUTO 30006KT 10SM CLR 02/M02 A3040 RMK AO2
KDUB 241035Z AUTO 29007KT 10SM CLR 02/M02 A3039 RMK AO2
KDUB 241015Z AUTO 30003KT 10SM CLR 02/M02 A3039 RMK AO2
KDUB 240955Z AUTO 30005KT 10SM CLR 02/M02 A3039 RMK AO2
KDUB 240930Z AUTO 00000KT 10SM CLR 03/M02 A3040 RMK AO2
KDUB 240915Z AUTO 28003KT 10SM CLR 03/M02 A3040 RMK AO2
KDUB 240855Z AUTO 31003KT 10SM CLR 04/M02 A3040 RMK AO2
KDUB 240835Z AUTO 31003KT 10SM CLR 05/M02 A3040 RMK AO2
KDUB 240815Z AUTO 25004KT 10SM CLR 06/M02 A3040 RMK AO2
KDUB 240755Z AUTO 30006KT 10SM CLR 05/M02 A3039 RMK AO2
KDUB 240735Z AUTO 30005KT 10SM CLR 05/M02 A3039 RMK AO2
KDUB 240715Z AUTO 00000KT 10SM CLR 06/M02 A3039 RMK AO2
KDUB 240655Z AUTO 00000KT 10SM CLR 06/M02 A3038 RMK AO2
KDUB 240635Z AUTO 21003KT 10SM CLR 06/M02 A3038 RMK AO2
KDUB 240615Z AUTO 00000KT 10SM CLR 07/M02 A3038 RMK AO2
KDUB 240555Z AUTO 24003KT 10SM CLR 06/M02 A3038 RMK AO2
KDUB 240535Z AUTO 12003KT 10SM CLR 08/M03 A3037 RMK AO2
KDUB 240515Z AUTO 11004KT 10SM CLR 09/M03 A3037 RMK AO2
KDUB 240455Z AUTO 11004KT 10SM CLR 10/M03 A3037 RMK AO2
KDUB 240430Z AUTO 14008KT 10SM CLR 10/M03 A3036 RMK AO2
KDUB 240415Z AUTO 14008KT 10SM CLR 11/M03 A3036 RMK AO2
KDUB 240355Z AUTO 14009KT 10SM CLR 11/M03 A3035 RMK AO2
KDUB 240335Z AUTO 15010KT 10SM CLR 11/M02 A3034 RMK AO2
KDUB 240315Z AUTO 16010KT 10SM CLR 12/M02 A3032 RMK AO2
KDUB 240255Z AUTO 14010G16KT 10SM CLR 12/M02 A3032 RMK AO2
KDUB 240235Z AUTO 15011KT 10SM CLR 13/M01 A3031 RMK AO2
KDUB 240215Z AUTO 14014G18KT 10SM CLR 13/M01 A3030 RMK AO2
KDUB 240155Z AUTO 14015KT 10SM CLR 15/00 A3029 RMK AO2
KDUB 240135Z AUTO 13013G17KT 10SM CLR 15/00 A3029 RMK AO2
KDUB 240115Z AUTO 13014G19KT 10SM CLR 16/00 A3029 RMK AO2
KDUB 240055Z AUTO 13010G18KT 10SM CLR 16/00 A3028 RMK AO2
KDUB 240035Z AUTO 12012G20KT 085V145 10SM CLR 16/00 A3027 RMK AO2
KDUB 240015Z AUTO 12012G17KT 10SM CLR 17/00 A3026 RMK AO2
KDUB 232355Z AUTO 12012G16KT 10SM CLR 17/00 A3026 RMK AO2
KDUB 232335Z AUTO 12014G17KT 10SM CLR 17/00 A3026 RMK AO2
KDUB 232315Z AUTO 14014G18KT 10SM CLR 18/00 A3026 RMK AO2
KDUB 232255Z AUTO 13013G20KT 095V155 10SM CLR 18/00 A3026 RMK AO2
KDUB 232235Z AUTO 12014KT 10SM CLR 18/M01 A3026 RMK AO2
KDUB 232215Z AUTO 12012G18KT 10SM CLR 18/00 A3026 RMK AO2
KDUB 232155Z AUTO 13010G18KT 10SM CLR 18/M01 A3026 RMK AO2
KDUB 232135Z AUTO 12011KT 10SM CLR 18/00 A3026 RMK AO2
KDUB 232115Z AUTO 12012G15KT 10SM CLR 17/00 A3026 RMK AO2
KDUB 232055Z AUTO 13013G17KT 10SM CLR 17/00 A3027 RMK AO2
KDUB 232035Z AUTO 11010G17KT 10SM CLR 17/00 A3027 RMK AO2
KDUB 232015Z AUTO 12012G15KT 10SM CLR 16/00 A3027 RMK AO2
KDUB 231955Z AUTO 11010G19KT 10SM CLR 16/00 A3027 RMK AO2
KDUB 231935Z AUTO 14012G19KT 10SM CLR 15/00 A3028 RMK AO2
KDUB 231915Z AUTO 13010G15KT 10SM CLR 15/00 A3028 RMK AO2
KDUB 231855Z AUTO 12008G14KT 10SM CLR 15/00 A3028 RMK AO2
KDUB 231835Z AUTO 10010G15KT 10SM CLR 14/00 A3029 RMK AO2
KDUB 231815Z AUTO 12009KT 10SM CLR 14/00 A3029 RMK AO2
KDUB 231755Z AUTO 10007KT 10SM CLR 13/00 A3030 RMK AO2
KDUB 231735Z AUTO 12003KT 10SM CLR 12/00 A3031 RMK AO2
KDUB 231715Z AUTO 08005KT 10SM CLR 12/00 A3032 RMK AO2
KDUB 231655Z AUTO 00000KT 10SM CLR 11/M01 A3033 RMK AO2
KDUB 231635Z AUTO 13005KT 10SM CLR 11/00 A3033 RMK AO2
KDUB 231615Z AUTO 15005KT 10SM CLR 10/00 A3033 RMK AO2
KDUB 231555Z AUTO 00000KT 10SM CLR 09/00 A3034 RMK AO2
KDUB 231535Z AUTO 10004KT 10SM CLR 08/M01 A3035 RMK AO2
KDUB 231515Z AUTO 07003KT 10SM CLR 08/00 A3035 RMK AO2
KDUB 231455Z AUTO 10005KT 10SM CLR 08/00 A3035 RMK AO2
KDUB 231435Z AUTO 13003KT 10SM CLR 07/00 A3035 RMK AO2
KDUB 231415Z AUTO 11003KT 10SM CLR 07/M01 A3035 RMK AO2
KDUB 231355Z AUTO 05003KT 10SM CLR 06/M01 A3035 RMK AO2
KDUB 231335Z AUTO 00000KT 10SM CLR 06/M01 A3035 RMK AO2
KDUB 231315Z AUTO 00000KT 10SM CLR 05/M01 A3035 RMK AO2
KDUB 231255Z AUTO 00000KT 10SM CLR 05/M01 A3035 RMK AO2
KDUB 231235Z AUTO 00000KT 10SM CLR 04/M01 A3035 RMK AO2
KDUB 231215Z AUTO 00000KT 10SM CLR 03/M02 A3035 RMK AO2
KDUB 231155Z AUTO 00000KT 10SM CLR 02/M02 A3035 RMK AO2
KDUB 231135Z AUTO 24003KT 10SM CLR 02/M02 A3034 RMK AO2
KDUB 231115Z AUTO 24004KT 10SM CLR 01/M02 A3034 RMK AO2
KDUB 231055Z AUTO 00000KT 10SM CLR 02/M02 A3034 RMK AO2
KDUB 231035Z AUTO 00000KT 10SM CLR 02/M02 A3033 RMK AO2
KDUB 231015Z AUTO 00000KT 10SM CLR 02/M02 A3032 RMK AO2
KDUB 230955Z AUTO 16004KT 10SM CLR 03/M02 A3031 RMK AO2
KDUB 230935Z AUTO 18004KT 10SM CLR 03/M03 A3031 RMK AO2
KDUB 230915Z AUTO 16003KT 10SM CLR 05/M03 A3031 RMK AO2


Page loaded:  20:55 UTC  |   01:55 PM Pacific  |   02:55 PM Mountain  |   03:55 PM Central  |   04:55 PM Eastern

 

ADVISORIES

FORECASTS

FORECASTS

OBSERVATIONS

USER TOOLS

ABOUT US